Current Weather

Joliet Rgnl

Joliet, Illinois (KJOT)

Report from: Sunday, April 21, 2024 3:35 PM CDT
Current time: Sunday, April 21, 2024 3:50 PM CDT

Nearby weather – Weather history – Daily summaries
Weather forecast

Temperature15.1°C (59.2°F)
Dew point-3.9°C (25.0°F)
Winds 9 kts (4.6 m/s, 10.4 mph) Vrb
Wind gusts 17 kts (8.7 m/s, 19.6 mph)
Winds variableWinds variable from West-Southwest (250°) to Northwest (310°)
Visibility10 mi. (16.1 km)
Clouds Sky clear
Altimeter30.14 in.Hg (1021 mB)
Relative humidity27 %
Density altitude-162 ft. (-49 m)
Remarks Fully automated report
Automated weather observing station with precipitation discriminator
Flight conditions Visual Meteorological Conditions
Raw dataKJOT 212035Z AUTO 28009G17KT 250V310 10SM CLR 15/M04 A3014 RMK AO2 T01511039
An error has occurred. This application may no longer respond until reloaded. Reload 🗙